createdAt,value
2022-08-11T00:02:17.891Z,990.5
2022-08-11T00:04:19.371Z,990.5
2022-08-11T00:06:20.581Z,990.5
2022-08-11T00:08:21.810Z,990.5
2022-08-11T00:10:23.058Z,990.5
2022-08-11T00:12:24.927Z,990.5
2022-08-11T00:14:33.715Z,990.6
2022-08-11T00:16:28.213Z,990.5
2022-08-11T00:18:30.051Z,990.6
2022-08-11T00:20:31.944Z,990.6
2022-08-11T00:22:33.131Z,990.5
2022-08-11T00:24:33.883Z,990.5
2022-08-11T00:26:35.332Z,990.5
2022-08-11T00:28:37.258Z,990.6
2022-08-11T00:30:38.437Z,990.6
2022-08-11T00:32:40.231Z,990.5
2022-08-11T00:34:41.463Z,990.7
2022-08-11T00:36:42.452Z,990.6
2022-08-11T00:38:43.402Z,990.6
2022-08-11T00:40:44.444Z,990.5
2022-08-11T00:44:46.988Z,990.4
2022-08-11T00:46:48.172Z,990.6
2022-08-11T00:48:49.296Z,990.5
2022-08-11T00:50:50.553Z,990.5
2022-08-11T00:52:51.643Z,990.5
2022-08-11T00:54:52.837Z,990.5
2022-08-11T00:56:54.420Z,990.5
2022-08-11T00:58:55.657Z,990.4
2022-08-11T01:02:58.049Z,990.4
2022-08-11T01:04:59.302Z,990.4
2022-08-11T01:07:01.230Z,990.4
2022-08-11T01:09:03.094Z,990.4
2022-08-11T01:11:04.840Z,990.5
2022-08-11T01:13:08.354Z,990.5
2022-08-11T01:15:07.594Z,990.5
2022-08-11T01:17:09.575Z,990.5
2022-08-11T01:21:12.491Z,990.5
2022-08-11T01:23:15.777Z,990.6
2022-08-11T01:25:16.142Z,990.5
2022-08-11T01:27:18.665Z,990.5
2022-08-11T01:31:20.038Z,990.5
2022-08-11T01:33:21.289Z,990.4
2022-08-11T01:35:22.655Z,990.5
2022-08-11T01:37:24.546Z,990.5
2022-08-11T01:39:26.434Z,990.6
2022-08-11T01:41:27.797Z,990.6
2022-08-11T01:43:29.027Z,990.5
2022-08-11T01:45:30.155Z,990.6
2022-08-11T01:47:31.935Z,990.5
2022-08-11T01:50:07.383Z,990.4
2022-08-11T01:51:34.699Z,990.5
2022-08-11T01:53:35.907Z,990.5
2022-08-11T01:55:37.576Z,990.4
2022-08-11T01:57:38.584Z,990.4
2022-08-11T01:59:39.679Z,990.4
2022-08-11T02:01:40.662Z,990.4
2022-08-11T02:03:41.754Z,990.4
2022-08-11T02:05:42.792Z,990.5
2022-08-11T02:07:44.329Z,990.4
2022-08-11T02:09:49.424Z,990.4
2022-08-11T02:11:47.169Z,990.4
2022-08-11T02:13:48.760Z,990.5
2022-08-11T02:15:50.095Z,990.5
2022-08-11T02:17:51.584Z,990.4
2022-08-11T02:19:53.037Z,990.5
2022-08-11T02:21:54.661Z,990.4
2022-08-11T02:25:58.092Z,990.5
2022-08-11T02:27:59.081Z,990.4
2022-08-11T02:30:00.774Z,990.3
2022-08-11T02:32:15.710Z,990.4
2022-08-11T02:34:03.677Z,990.3
2022-08-11T02:36:04.614Z,990.3
2022-08-11T02:38:06.005Z,990.3
2022-08-11T02:40:07.514Z,990.3
2022-08-11T02:42:08.501Z,990.2
2022-08-11T02:44:09.450Z,990.3
2022-08-11T02:46:18.320Z,990.2
2022-08-11T02:48:13.012Z,990.2
2022-08-11T02:50:14.675Z,990.2
2022-08-11T02:52:16.330Z,990.1
2022-08-11T02:54:18.014Z,990.3
2022-08-11T02:56:19.211Z,990.3
2022-08-11T02:58:22.093Z,990.3
2022-08-11T03:02:24.006Z,990.3
2022-08-11T03:04:25.234Z,990.3
2022-08-11T03:06:26.994Z,990.3
2022-08-11T03:08:28.411Z,990.3
2022-08-11T03:10:30.334Z,990.3
2022-08-11T03:12:31.652Z,990.3
2022-08-11T03:14:33.517Z,990.3
2022-08-11T03:16:34.491Z,990.3
2022-08-11T03:18:35.755Z,990.3
2022-08-11T03:20:38.132Z,990.4
2022-08-11T03:22:39.020Z,990.4
2022-08-11T03:26:42.182Z,990.5
2022-08-11T03:30:45.048Z,990.5
2022-08-11T03:32:46.498Z,990.5
2022-08-11T03:34:47.722Z,990.5
2022-08-11T03:36:54.640Z,990.4
2022-08-11T03:38:50.566Z,990.5
2022-08-11T03:40:52.382Z,990.4
2022-08-11T03:42:53.660Z,990.5
2022-08-11T03:44:55.117Z,990.5
2022-08-11T03:48:58.006Z,990.5
2022-08-11T03:50:59.219Z,990.5
2022-08-11T03:55:02.070Z,990.5
2022-08-11T03:57:03.383Z,990.5
2022-08-11T03:59:04.454Z,990.5
2022-08-11T04:01:05.707Z,990.5
2022-08-11T04:03:06.735Z,990.6
2022-08-11T04:05:51.588Z,990.6
2022-08-11T04:07:53.093Z,990.5
2022-08-11T04:09:54.869Z,990.4
2022-08-11T04:11:56.504Z,990.6
2022-08-11T04:13:58.230Z,990.5
2022-08-11T04:15:59.247Z,990.6
2022-08-11T04:18:01.162Z,990.5
2022-08-11T04:20:03.041Z,990.5
2022-08-11T04:22:04.733Z,990.5
2022-08-11T04:24:13.653Z,990.6
2022-08-11T04:28:09.188Z,990.5
2022-08-11T04:30:12.048Z,990.5
2022-08-11T04:32:12.130Z,990.6
2022-08-11T04:34:13.547Z,990.5
2022-08-11T04:38:16.458Z,990.6
2022-08-11T04:40:17.528Z,990.6
2022-08-11T04:42:19.156Z,990.6
2022-08-11T04:44:20.857Z,990.5
2022-08-11T04:46:22.787Z,990.5
2022-08-11T04:48:24.207Z,990.5
2022-08-11T04:50:25.492Z,990.5
2022-08-11T04:52:35.831Z,990.5
2022-08-11T04:54:28.865Z,990.5
2022-08-11T04:56:30.009Z,990.5
2022-08-11T04:58:31.402Z,990.5
2022-08-11T05:00:32.279Z,990.5
2022-08-11T05:02:33.309Z,990.5
2022-08-11T05:04:34.463Z,990.6
2022-08-11T05:06:35.444Z,990.5
2022-08-11T05:10:39.956Z,990.5
2022-08-11T05:12:39.971Z,990.6
2022-08-11T05:14:40.808Z,990.6
2022-08-11T05:16:42.495Z,990.6
2022-08-11T05:18:44.189Z,990.6
2022-08-11T05:20:45.251Z,990.6
2022-08-11T05:22:46.490Z,990.6
2022-08-11T05:26:49.941Z,990.7
2022-08-11T05:28:50.982Z,990.6
2022-08-11T05:30:52.360Z,990.6
2022-08-11T05:32:56.921Z,990.7
2022-08-11T05:34:56.019Z,990.7
2022-08-11T05:37:11.722Z,990.7
2022-08-11T05:38:58.852Z,990.8
2022-08-11T05:41:00.290Z,990.7
2022-08-11T05:43:01.507Z,990.8
2022-08-11T05:45:02.948Z,990.8
2022-08-11T05:47:03.967Z,990.8
2022-08-11T05:49:05.785Z,990.8
2022-08-11T05:51:10.424Z,990.8
2022-08-11T05:53:09.080Z,990.8
2022-08-11T05:55:09.939Z,990.8
2022-08-11T05:57:10.957Z,990.8
2022-08-11T05:59:12.091Z,990.7
2022-08-11T06:01:13.764Z,990.7
2022-08-11T06:03:15.249Z,990.7
2022-08-11T06:05:16.710Z,990.8
2022-08-11T06:07:17.531Z,990.8
2022-08-11T06:09:18.558Z,990.8
2022-08-11T06:11:19.521Z,990.8
2022-08-11T06:13:20.771Z,990.7
2022-08-11T06:15:21.649Z,990.7
2022-08-11T06:17:23.282Z,990.8
2022-08-11T06:19:33.941Z,990.8
2022-08-11T06:23:28.287Z,990.8
2022-08-11T06:25:29.329Z,990.9
2022-08-11T06:27:31.106Z,990.8
2022-08-11T06:29:37.379Z,990.8
2022-08-11T06:31:33.358Z,990.8
2022-08-11T06:33:34.191Z,990.8
2022-08-11T06:35:35.750Z,990.9
2022-08-11T06:37:37.277Z,990.8
2022-08-11T06:39:39.109Z,990.8
2022-08-11T06:41:40.732Z,990.9
2022-08-11T06:43:42.482Z,990.8
2022-08-11T06:45:44.248Z,990.8
2022-08-11T06:47:45.172Z,990.8
2022-08-11T06:49:46.083Z,990.7
2022-08-11T06:51:47.372Z,990.8
2022-08-11T06:53:49.513Z,990.7
2022-08-11T06:55:56.410Z,990.7
2022-08-11T06:57:51.115Z,990.8
2022-08-11T06:59:52.769Z,990.7
2022-08-11T07:01:54.451Z,990.6
2022-08-11T07:03:55.807Z,990.6
2022-08-11T07:05:57.015Z,990.6
2022-08-11T07:07:58.684Z,990.6
2022-08-11T07:10:00.440Z,990.6
2022-08-11T07:12:02.164Z,990.6
2022-08-11T07:14:04.284Z,990.6
2022-08-11T07:16:12.034Z,990.7
2022-08-11T07:18:07.211Z,990.6
2022-08-11T07:20:08.531Z,990.6
2022-08-11T07:22:09.981Z,990.5
2022-08-11T07:24:10.757Z,990.6
2022-08-11T07:26:12.287Z,990.7
2022-08-11T07:28:13.425Z,990.6
2022-08-11T07:30:15.201Z,990.6
2022-08-11T07:32:16.198Z,990.6
2022-08-11T07:34:18.336Z,990.5
2022-08-11T07:36:19.630Z,990.5
2022-08-11T07:38:22.961Z,990.5
2022-08-11T07:40:22.190Z,990.5
2022-08-11T07:42:23.635Z,990.4
2022-08-11T07:44:24.521Z,990.4
2022-08-11T07:46:25.696Z,990.3
2022-08-11T07:48:26.980Z,990.4
2022-08-11T07:50:27.991Z,990.5
2022-08-11T07:52:28.838Z,990.4
2022-08-11T07:54:32.155Z,990.4
2022-08-11T07:56:33.169Z,990.4
2022-08-11T07:58:34.807Z,990.4
2022-08-11T08:00:32.947Z,990.3
2022-08-11T08:02:34.368Z,990.4
2022-08-11T08:04:36.084Z,990.4
2022-08-11T08:06:37.844Z,990.3
2022-08-11T08:08:39.412Z,990.3
2022-08-11T08:10:40.515Z,990.2
2022-08-11T08:12:41.741Z,990.2
2022-08-11T08:14:43.242Z,990.2
2022-08-11T08:16:44.494Z,990.2
2022-08-11T08:18:45.402Z,990.2
2022-08-11T08:20:46.603Z,990.2
2022-08-11T08:22:48.620Z,990.2
2022-08-11T08:24:49.284Z,990.2
2022-08-11T08:26:51.705Z,990.2
2022-08-11T08:28:51.450Z,990.2
2022-08-11T08:30:53.035Z,990.2
2022-08-11T08:32:54.169Z,990.2
2022-08-11T08:34:55.915Z,990.2
2022-08-11T08:36:56.922Z,990.2
2022-08-11T08:38:58.666Z,990.1
2022-08-11T08:40:59.544Z,990.2
2022-08-11T08:43:00.845Z,990.2
2022-08-11T08:45:01.790Z,990.1
2022-08-11T08:47:03.514Z,990.1
2022-08-11T08:49:05.227Z,990.2
2022-08-11T08:51:06.613Z,990.1
2022-08-11T08:53:07.828Z,990.1
2022-08-11T08:55:08.637Z,990.1
2022-08-11T08:57:10.762Z,990.1
2022-08-11T08:59:12.160Z,990.1
2022-08-11T09:01:13.279Z,990.1
2022-08-11T09:03:36.326Z,990.1
2022-08-11T09:05:15.794Z,990.1
2022-08-11T09:07:16.805Z,990.1
2022-08-11T09:09:18.578Z,990.1
2022-08-11T09:11:20.290Z,990.2
2022-08-11T09:13:21.607Z,990.1
2022-08-11T09:15:22.446Z,990.1
2022-08-11T09:17:23.304Z,990.2
2022-08-11T09:19:24.351Z,990.1
2022-08-11T09:21:34.244Z,990.1
2022-08-11T09:24:06.551Z,990.1
2022-08-11T09:25:28.604Z,990.1
2022-08-11T09:27:30.192Z,990.1
2022-08-11T09:29:30.998Z,990
2022-08-11T09:31:35.774Z,990
2022-08-11T09:33:33.852Z,990.1
2022-08-11T09:35:35.249Z,990.1
2022-08-11T09:37:55.147Z,990.1
2022-08-11T09:39:38.175Z,990.1
2022-08-11T09:41:55.924Z,990
2022-08-11T09:43:40.067Z,990
2022-08-11T09:45:41.769Z,990
2022-08-11T09:47:42.739Z,990
2022-08-11T09:49:44.234Z,990
2022-08-11T09:51:56.543Z,990
2022-08-11T09:53:47.185Z,990
2022-08-11T09:55:48.295Z,989.9
2022-08-11T09:57:49.509Z,990
2022-08-11T09:59:51.263Z,989.9
2022-08-11T10:03:53.467Z,990
2022-08-11T10:05:54.831Z,989.9
2022-08-11T10:07:56.198Z,989.8
2022-08-11T10:09:57.046Z,989.8
2022-08-11T10:11:58.514Z,989.8
2022-08-11T10:16:15.009Z,989.7
2022-08-11T10:18:03.270Z,989.8
2022-08-11T10:20:05.858Z,989.8
2022-08-11T10:22:05.863Z,989.8
2022-08-11T10:24:06.709Z,989.8
2022-08-11T10:26:07.553Z,989.7
2022-08-11T10:28:17.396Z,989.7
2022-08-11T10:30:09.991Z,989.7
2022-08-11T10:32:11.241Z,989.7
2022-08-11T10:34:12.756Z,989.7
2022-08-11T10:36:16.231Z,989.7
2022-08-11T10:38:15.318Z,989.7
2022-08-11T10:40:16.564Z,989.7
2022-08-11T10:42:30.191Z,989.6
2022-08-11T10:44:19.395Z,989.6
2022-08-11T10:46:29.589Z,989.6
2022-08-11T10:48:21.900Z,989.6
2022-08-11T10:49:05.577Z,989.6
2022-08-11T10:51:06.567Z,989.5
2022-08-11T10:53:07.363Z,989.5
2022-08-11T10:55:08.533Z,989.5
2022-08-11T10:57:10.061Z,989.5
2022-08-11T10:59:11.212Z,989.4
2022-08-11T11:01:12.185Z,989.5
2022-08-11T11:03:22.519Z,989.5
2022-08-11T11:05:14.238Z,989.5
2022-08-11T11:07:15.971Z,989.4
2022-08-11T11:09:16.885Z,989.3
2022-08-11T11:11:18.574Z,989.4
2022-08-11T11:13:19.732Z,989.4
2022-08-11T11:15:20.600Z,989.4
2022-08-11T11:17:21.549Z,989.4
2022-08-11T11:19:22.718Z,989.3
2022-08-11T11:21:23.868Z,989.2
2022-08-11T11:23:25.269Z,989.2
2022-08-11T11:25:26.537Z,989.2
2022-08-11T11:27:28.071Z,989.3
2022-08-11T11:29:29.023Z,989.3
2022-08-11T11:31:30.678Z,989.2
2022-08-11T11:33:31.513Z,989.2
2022-08-11T11:35:32.283Z,989.1
2022-08-11T11:37:33.250Z,989.2
2022-08-11T11:39:34.907Z,989.1
2022-08-11T11:41:36.435Z,989.1
2022-08-11T11:43:37.751Z,989
2022-08-11T11:45:38.796Z,989
2022-08-11T11:47:39.874Z,989.2
2022-08-11T11:49:40.727Z,989.2
2022-08-11T11:51:41.936Z,989.2
2022-08-11T11:55:44.837Z,989.1
2022-08-11T11:57:58.888Z,989
2022-08-11T11:59:47.639Z,989.1
2022-08-11T12:01:50.226Z,989
2022-08-11T12:03:49.913Z,988.9
2022-08-11T12:05:51.385Z,988.9
2022-08-11T12:07:56.816Z,989
2022-08-11T12:09:53.354Z,989
2022-08-11T12:11:54.501Z,988.9
2022-08-11T12:13:56.170Z,988.8
2022-08-11T12:16:04.580Z,988.8
2022-08-11T12:17:58.623Z,988.8
2022-08-11T12:19:59.380Z,988.8
2022-08-11T12:22:01.201Z,988.9
2022-08-11T12:24:04.391Z,988.6
2022-08-11T12:26:25.637Z,988.8
2022-08-11T12:28:04.247Z,988.9
2022-08-11T12:30:05.005Z,988.8
2022-08-11T12:32:06.401Z,988.8
2022-08-11T12:34:08.052Z,988.7
2022-08-11T12:38:12.689Z,988.7
2022-08-11T12:40:42.289Z,988.5
2022-08-11T12:42:13.295Z,988.7
2022-08-11T12:44:15.003Z,988.7
2022-08-11T12:46:16.269Z,988.6
2022-08-11T12:49:00.093Z,988.5
2022-08-11T12:50:20.943Z,988.5
2022-08-11T12:54:20.164Z,988.5
2022-08-11T12:56:21.406Z,988.5
2022-08-11T12:58:22.356Z,988.5
2022-08-11T13:00:23.551Z,988.3
2022-08-11T13:02:25.195Z,988.3
2022-08-11T13:04:26.546Z,988.4
2022-08-11T13:06:27.635Z,988.3
2022-08-11T13:08:28.445Z,988.2
2022-08-11T13:10:30.322Z,988.3
2022-08-11T13:12:31.109Z,988.2
2022-08-11T13:14:32.041Z,988.3
2022-08-11T13:16:33.009Z,988.2
2022-08-11T13:18:34.282Z,988.2
2022-08-11T13:20:35.896Z,988.2
2022-08-11T13:22:36.785Z,988.3
2022-08-11T13:24:38.145Z,988.3
2022-08-11T13:26:47.672Z,988.2
2022-08-11T13:28:41.261Z,988.3
2022-08-11T13:30:45.418Z,988.2
2022-08-11T13:32:43.131Z,988.1
2022-08-11T13:34:44.212Z,988
2022-08-11T13:36:45.414Z,988
2022-08-11T13:38:49.921Z,988.1
2022-08-11T13:40:55.497Z,988.1
2022-08-11T13:42:49.219Z,988
2022-08-11T13:44:50.420Z,988
2022-08-11T13:46:52.876Z,988
2022-08-11T13:48:53.474Z,988
2022-08-11T13:50:54.347Z,988
2022-08-11T13:52:56.125Z,988
2022-08-11T13:54:57.344Z,988
2022-08-11T13:56:59.066Z,987.9
2022-08-11T13:58:59.978Z,988
2022-08-11T14:01:01.360Z,987.9
2022-08-11T14:03:02.317Z,987.8
2022-08-11T14:05:03.532Z,987.9
2022-08-11T14:07:04.723Z,987.9
2022-08-11T14:09:06.118Z,987.8
2022-08-11T14:11:07.365Z,987.9
2022-08-11T14:13:08.885Z,987.7
2022-08-11T14:15:10.278Z,987.7
2022-08-11T14:17:11.091Z,987.7
2022-08-11T14:19:12.486Z,987.7
2022-08-11T14:21:13.735Z,987.6
2022-08-11T14:23:14.857Z,987.7
2022-08-11T14:25:16.163Z,987.7
2022-08-11T14:28:22.157Z,987.6
2022-08-11T14:31:19.814Z,987.5
2022-08-11T14:35:23.084Z,987.6
2022-08-11T14:37:24.169Z,987.5
2022-08-11T14:39:25.482Z,987.5
2022-08-11T14:41:26.267Z,987.6
2022-08-11T14:44:13.433Z,987.7
2022-08-11T14:45:54.456Z,987.6
2022-08-11T14:47:29.964Z,987.6
2022-08-11T14:49:31.516Z,987.6
2022-08-11T14:51:33.000Z,987.6
2022-08-11T14:53:34.548Z,987.6
2022-08-11T14:55:36.010Z,987.5
2022-08-11T14:57:54.694Z,987.5
2022-08-11T14:59:39.316Z,987.5
2022-08-11T15:01:40.606Z,987.4
2022-08-11T15:03:41.683Z,987.3
2022-08-11T15:05:45.100Z,987.4
2022-08-11T15:07:43.899Z,987.3
2022-08-11T15:11:46.055Z,987.4
2022-08-11T15:13:47.468Z,987.4
2022-08-11T15:17:50.018Z,987.4
2022-08-11T15:19:51.106Z,987.2
2022-08-11T15:21:52.159Z,987.3
2022-08-11T15:23:53.218Z,987.2
2022-08-11T15:25:54.739Z,987.2
2022-08-11T15:27:56.016Z,987.2
2022-08-11T15:29:57.363Z,987.3
2022-08-11T15:31:58.265Z,987.2
2022-08-11T15:33:58.957Z,987.1
2022-08-11T15:36:00.464Z,987.1
2022-08-11T15:38:02.122Z,987
2022-08-11T15:40:03.689Z,987.1
2022-08-11T15:42:05.106Z,987
2022-08-11T15:44:06.792Z,987
2022-08-11T15:46:07.791Z,987.1
2022-08-11T15:48:10.537Z,987
2022-08-11T15:50:13.576Z,987
2022-08-11T15:52:11.920Z,986.9
2022-08-11T15:54:13.527Z,987
2022-08-11T15:56:14.711Z,986.9
2022-08-11T15:58:15.519Z,987
2022-08-11T16:00:16.424Z,986.9
2022-08-11T16:02:17.212Z,986.9
2022-08-11T16:04:18.035Z,986.9
2022-08-11T16:06:19.286Z,986.8
2022-08-11T16:08:20.965Z,986.7
2022-08-11T16:10:21.605Z,986.8
2022-08-11T16:12:23.284Z,986.8
2022-08-11T16:14:24.169Z,986.9
2022-08-11T16:16:25.396Z,986.8
2022-08-11T16:18:27.062Z,986.8
2022-08-11T16:20:28.637Z,986.9
2022-08-11T16:22:29.994Z,986.8
2022-08-11T16:25:58.937Z,986.7
2022-08-11T16:27:06.525Z,986.8
2022-08-11T16:28:33.705Z,986.7
2022-08-11T16:30:35.134Z,986.7
2022-08-11T16:32:36.349Z,986.7
2022-08-11T16:34:37.736Z,986.7
2022-08-11T16:36:39.186Z,986.6
2022-08-11T16:38:40.777Z,986.7
2022-08-11T16:40:41.683Z,986.7
2022-08-11T16:42:59.842Z,986.6
2022-08-11T16:44:43.915Z,986.7
2022-08-11T16:46:44.887Z,986.6
2022-08-11T16:48:46.446Z,986.6
2022-08-11T16:50:47.640Z,986.6
2022-08-11T16:52:48.883Z,986.6
2022-08-11T16:54:50.486Z,986.5
2022-08-11T16:58:53.120Z,986.7
2022-08-11T17:00:54.843Z,986.6
2022-08-11T17:02:56.058Z,986.6
2022-08-11T17:04:57.546Z,986.6
2022-08-11T17:06:58.417Z,986.6
2022-08-11T17:08:59.567Z,986.6
2022-08-11T17:11:03.753Z,986.5
2022-08-11T17:13:01.722Z,986.5
2022-08-11T17:15:03.185Z,986.5
2022-08-11T17:17:04.286Z,986.5
2022-08-11T17:19:05.566Z,986.5
2022-08-11T17:21:07.316Z,986.5
2022-08-11T17:23:08.785Z,986.5
2022-08-11T17:25:10.004Z,986.5
2022-08-11T17:27:11.125Z,986.5
2022-08-11T17:29:12.540Z,986.5
2022-08-11T17:31:22.577Z,986.5
2022-08-11T17:33:15.226Z,986.5
2022-08-11T17:35:59.701Z,986.5
2022-08-11T17:38:00.983Z,986.5
2022-08-11T17:40:02.019Z,986.5
2022-08-11T17:42:03.669Z,986.5
2022-08-11T17:44:04.461Z,986.5
2022-08-11T17:46:06.114Z,986.5
2022-08-11T17:48:06.835Z,986.4
2022-08-11T17:50:09.613Z,986.5
2022-08-11T17:52:08.978Z,986.5
2022-08-11T17:56:11.109Z,986.6
2022-08-11T17:58:12.782Z,986.4
2022-08-11T18:02:15.186Z,986.6
2022-08-11T18:04:16.567Z,986.5
2022-08-11T18:06:18.216Z,986.6
2022-08-11T18:08:19.067Z,986.6
2022-08-11T18:10:20.780Z,986.5
2022-08-11T18:12:22.153Z,986.6
2022-08-11T18:14:23.449Z,986.6
2022-08-11T18:16:25.002Z,986.6
2022-08-11T18:18:26.720Z,986.7
2022-08-11T18:20:27.905Z,986.7
2022-08-11T18:22:28.960Z,986.7
2022-08-11T18:24:29.844Z,986.7
2022-08-11T18:26:31.121Z,986.7
2022-08-11T18:28:31.958Z,986.7
2022-08-11T18:30:33.737Z,986.8
2022-08-11T18:32:49.453Z,986.8
2022-08-11T18:34:35.688Z,986.9
2022-08-11T18:36:37.508Z,986.8
2022-08-11T18:38:38.456Z,986.8
2022-08-11T18:40:39.938Z,986.9
2022-08-11T18:42:41.344Z,986.8
2022-08-11T18:44:42.267Z,986.8
2022-08-11T18:46:43.816Z,986.9
2022-08-11T18:50:47.272Z,986.8
2022-08-11T18:52:47.879Z,986.9
2022-08-11T18:54:53.064Z,986.9
2022-08-11T18:56:50.178Z,986.8
2022-08-11T18:58:51.748Z,986.9
2022-08-11T19:00:53.522Z,986.9
2022-08-11T19:02:54.656Z,986.9
2022-08-11T19:04:55.962Z,986.9
2022-08-11T19:06:57.507Z,986.7
2022-08-11T19:08:58.928Z,986.9
2022-08-11T19:11:00.318Z,986.9
2022-08-11T19:13:01.754Z,986.9
2022-08-11T19:17:04.077Z,986.9
2022-08-11T19:19:05.518Z,986.9
2022-08-11T19:21:06.818Z,987
2022-08-11T19:23:07.857Z,986.9
2022-08-11T19:27:10.475Z,987
2022-08-11T19:30:02.612Z,987
2022-08-11T19:31:13.633Z,987
2022-08-11T19:33:15.148Z,986.9
2022-08-11T19:37:20.788Z,987
2022-08-11T19:39:19.501Z,987
2022-08-11T19:41:21.892Z,987
2022-08-11T19:43:26.314Z,987
2022-08-11T19:45:23.602Z,987
2022-08-11T19:47:24.993Z,987
2022-08-11T19:49:26.379Z,987
2022-08-11T19:51:27.416Z,987
2022-08-11T19:53:28.656Z,987.1
2022-08-11T19:55:30.433Z,987.1
2022-08-11T19:57:35.863Z,987.1
2022-08-11T19:59:33.362Z,987
2022-08-11T20:01:34.529Z,987.1
2022-08-11T20:03:36.309Z,987.1
2022-08-11T20:05:38.019Z,987.1
2022-08-11T20:07:39.742Z,987.1
2022-08-11T20:10:00.995Z,987.1
2022-08-11T20:11:43.008Z,987.2
2022-08-11T20:13:44.321Z,987.1
2022-08-11T20:15:45.411Z,987
2022-08-11T20:17:46.450Z,987.1
2022-08-11T20:19:54.865Z,987.1
2022-08-11T20:21:49.594Z,987.1
2022-08-11T20:23:51.185Z,987.1
2022-08-11T20:25:55.727Z,987.2
2022-08-11T20:27:55.645Z,987.2
2022-08-11T20:31:56.444Z,987.2
2022-08-11T20:33:58.040Z,987.1
2022-08-11T20:35:59.604Z,987.2
2022-08-11T20:38:00.795Z,987.2
2022-08-11T20:40:01.933Z,987.2
2022-08-11T20:42:02.979Z,987.2
2022-08-11T20:44:05.256Z,987.2
2022-08-11T20:46:05.325Z,987.2
2022-08-11T20:48:06.923Z,987.2
2022-08-11T20:50:08.074Z,987.3
2022-08-11T20:52:09.064Z,987.2
2022-08-11T20:54:10.594Z,987.3
2022-08-11T20:56:12.053Z,987.3
2022-08-11T20:58:15.228Z,987.5
2022-08-11T21:00:14.359Z,987.5
2022-08-11T21:02:15.308Z,987.6
2022-08-11T21:04:16.925Z,987.5
2022-08-11T21:06:26.400Z,987.5
2022-08-11T21:08:19.153Z,987.5
2022-08-11T21:12:22.207Z,987.6
2022-08-11T21:14:23.643Z,987.6
2022-08-11T21:16:26.957Z,987.6
2022-08-11T21:18:27.591Z,987.5
2022-08-11T21:20:28.666Z,987.6
2022-08-11T21:22:30.092Z,987.5
2022-08-11T21:24:30.899Z,987.5
2022-08-11T21:26:32.508Z,987.5
2022-08-11T21:28:33.840Z,987.5
2022-08-11T21:30:35.635Z,987.6
2022-08-11T21:32:36.586Z,987.5
2022-08-11T21:34:38.239Z,987.7
2022-08-11T21:36:39.863Z,987.7
2022-08-11T21:38:41.434Z,987.7
2022-08-11T21:40:42.374Z,987.7
2022-08-11T21:42:43.914Z,987.8
2022-08-11T21:44:44.904Z,987.7
2022-08-11T21:46:45.931Z,987.8
2022-08-11T21:48:47.701Z,987.7
2022-08-11T21:50:49.168Z,987.8
2022-08-11T21:52:50.966Z,987.8
2022-08-11T21:54:52.757Z,987.8
2022-08-11T21:56:54.291Z,987.7
2022-08-11T21:58:55.290Z,987.8
2022-08-11T22:00:56.572Z,987.8
2022-08-11T22:02:57.824Z,987.9
2022-08-11T22:04:59.397Z,987.8
2022-08-11T22:07:00.992Z,987.8
2022-08-11T22:09:02.653Z,987.9
2022-08-11T22:11:04.524Z,987.9
2022-08-11T22:13:06.397Z,987.9
2022-08-11T22:15:07.666Z,987.9
2022-08-11T22:17:08.661Z,987.8
2022-08-11T22:19:09.591Z,987.9
2022-08-11T22:21:11.323Z,987.9
2022-08-11T22:23:12.853Z,987.9
2022-08-11T22:25:16.396Z,988
2022-08-11T22:27:15.045Z,987.9
2022-08-11T22:29:16.075Z,987.9
2022-08-11T22:31:17.769Z,987.9
2022-08-11T22:33:20.919Z,988
2022-08-11T22:35:21.199Z,987.9
2022-08-11T22:37:27.028Z,988
2022-08-11T22:39:23.728Z,988
2022-08-11T22:41:25.692Z,988
2022-08-11T22:43:27.168Z,987.9
2022-08-11T22:45:28.856Z,987.9
2022-08-11T22:47:33.412Z,987.9
2022-08-11T22:49:31.251Z,987.8
2022-08-11T22:51:33.050Z,987.8
2022-08-11T22:53:55.096Z,987.9
2022-08-11T22:55:36.064Z,987.8
2022-08-11T22:57:37.426Z,987.8
2022-08-11T22:59:38.988Z,987.8
2022-08-11T23:01:54.592Z,987.9
2022-08-11T23:03:42.212Z,987.8
2022-08-11T23:05:43.153Z,987.8
2022-08-11T23:07:49.486Z,987.9
2022-08-11T23:09:45.772Z,987.9
2022-08-11T23:12:04.727Z,987.8
2022-08-11T23:13:48.087Z,987.9
2022-08-11T23:15:49.409Z,987.9
2022-08-11T23:17:50.534Z,987.9
2022-08-11T23:20:01.761Z,987.9
2022-08-11T23:21:53.270Z,987.9
2022-08-11T23:23:54.814Z,987.9
2022-08-11T23:25:56.364Z,987.9
2022-08-11T23:27:57.423Z,987.9
2022-08-11T23:29:59.011Z,987.9
2022-08-11T23:32:00.248Z,987.9
2022-08-11T23:34:01.253Z,987.9
2022-08-11T23:36:05.241Z,988
2022-08-11T23:38:03.904Z,987.9
2022-08-11T23:40:04.850Z,987.9
2022-08-11T23:42:05.985Z,987.9
2022-08-11T23:44:07.342Z,987.9
2022-08-11T23:46:08.942Z,987.8
2022-08-11T23:48:10.131Z,987.9
2022-08-11T23:50:11.570Z,987.8
2022-08-11T23:52:13.291Z,987.8
2022-08-11T23:54:14.866Z,987.9
2022-08-11T23:56:15.862Z,987.8
2022-08-11T23:58:17.141Z,987.9
